Clements, CA (95227)

11:10 PM PDT on September 18, 2014 (GMT -0700)
Peanut Hill | Change Station
CLOSE
Current Station
Personal Weather Station
Location: Lodi, CA
Elevation: 72 ft
Nearby Weather Stations

Elev 72 ft 38.14 °N, 121.12 °W | Updated 7 seconds ago

Clear
Clear
64.8 °F
Feels Like 64.8 °F
N
0.0
Wind Variable Wind from NE
Gusts 0.0 mph

Today
High -- | Low -- °F
--% Chance of Precip.
Yesterday
High -- | Low -- °F
Precip. -- in
6:48 AM 7:07 PM
Waning Crescent, 21% visible
Pressure 29.86 in
Visibility 10.0 miles
Clouds Clear
Dew Point 48 °F
Humidity 55%
Rainfall 0.00 in
Snow Depth 0 in , 1 in , 0 in
UV 0 out of 12
Pollen 5.40 out of 12
PM2.5 Good
Flu Activity Not available.
METAR KSCK 190555Z AUTO 27010KT 10SM CLR 21/14 A2985 RMK AO2 SLP109 T02060144 10289 20206 51012 TSNO

More Conditions Fewer Conditions

Pressure 29.86 in
Visibility 10.0 miles
Clouds Clear
Dew Point 48 °F
Humidity 55%
Rainfall 0.00 in
Snow Depth 0 in , 1 in , 0 in
UV 0 out of 12
Pollen 5.40 out of 12
PM2.5 Good
Flu Activity Not available.
METAR KSCK 190555Z AUTO 27010KT 10SM CLR 21/14 A2985 RMK AO2 SLP109 T02060144 10289 20206 51012 TSNO

More Conditions Fewer Conditions

10-Day Weather Forecast

Almanac

Astronomy

Sep. 18, 2014 Rise Set
Actual Time 6:48 AM PDT 7:07 PM PDT
Civil Twilight 6:22 AM PDT 7:33 PM PDT
Nautical Twilight 5:51 AM PDT 8:04 PM PDT
Astronomical Twilight 5:19 AM PDT 8:36 PM PDT
Moon 1:48 AM PDT (9/18) 3:58 PM PDT (9/18)
Length of Visible Light 13h 11m
Length of Day
12h 18m
Tomorrow will be 2m 27s shorter.
Waning Crescent, 21% of the Moon is Illuminated
Sep 19
Waning Crescent
Sep 24
New
Oct 1
First Quarter
Oct 8
Full
Oct 15
Last Quarter

Yesterday's Extremes

State Highs State Lows

Community

WunderPhotos

Upload Photos

1,754,575 photos uploaded!

Nearby

Air Quality

  Air Quality AQ Index Pollutant
Yesterday Good
OZONE
Yesterday Good
PM2.5
Current Good
PM2.5
Thursday Good
OZONE
Friday Moderate
PM2.5
Saturday Moderate
PM2.5
Sunday Moderate
PM2.5
Monday Moderate
PM2.5
Tuesday Moderate
PM2.5

Snow Depth

Station Depth Elevation
Tahoe City Cross 0 in 6750 ft
Summit Meadow 1 in 9122 ft
Squaw Valley 0 in 8200 ft
Spratt Creek 1 in 6200 ft
Rubicon #2 0 in 7500 ft

Earthquake Activity

City Distance Mag. Time & Date
The Geysers, California 96 miles 2.5 11:29 PM PDT
2014-09-17
Cobb, California 98 miles 2.7 1:23 PM PDT
2014-09-16
Minimum magnitude displayed is 2.5.

Coastal Water Temperatures

Place Temperature
San Francisco, CA 64.9 °F
Richmond, CA 68.0 °F
Port Chicago, CA 71.1 °F

Nearby Weather Stations